sensor_id;sensor_type;location;lat;lon;timestamp;temperature;humidity
14604;DHT22;7388;51.078;13.740;2022-12-18T00:02:01;-3.80;36.50
14604;DHT22;7388;51.078;13.740;2022-12-18T00:04:28;-3.80;36.40
14604;DHT22;7388;51.078;13.740;2022-12-18T00:06:53;-3.90;36.60
14604;DHT22;7388;51.078;13.740;2022-12-18T00:09:20;-4.00;36.80
14604;DHT22;7388;51.078;13.740;2022-12-18T00:11:46;-3.90;37.00
14604;DHT22;7388;51.078;13.740;2022-12-18T00:14:13;-3.90;37.50
14604;DHT22;7388;51.078;13.740;2022-12-18T00:16:39;-4.00;36.70
14604;DHT22;7388;51.078;13.740;2022-12-18T00:19:06;-4.00;36.90
14604;DHT22;7388;51.078;13.740;2022-12-18T00:21:33;-4.00;36.90
14604;DHT22;7388;51.078;13.740;2022-12-18T00:24:00;-3.90;36.90
14604;DHT22;7388;51.078;13.740;2022-12-18T00:26:31;-3.90;36.90
14604;DHT22;7388;51.078;13.740;2022-12-18T00:29:02;-3.90;36.90
14604;DHT22;7388;51.078;13.740;2022-12-18T00:31:29;-3.90;36.90
14604;DHT22;7388;51.078;13.740;2022-12-18T00:33:55;-4.00;36.40
14604;DHT22;7388;51.078;13.740;2022-12-18T00:36:24;-4.00;36.30
14604;DHT22;7388;51.078;13.740;2022-12-18T00:38:50;-4.10;36.30
14604;DHT22;7388;51.078;13.740;2022-12-18T00:41:17;-4.20;36.20
14604;DHT22;7388;51.078;13.740;2022-12-18T00:44:03;-4.20;36.30
14604;DHT22;7388;51.078;13.740;2022-12-18T00:46:30;-4.30;36.50
14604;DHT22;7388;51.078;13.740;2022-12-18T00:48:56;-4.30;36.70
14604;DHT22;7388;51.078;13.740;2022-12-18T00:51:22;-4.20;36.70
14604;DHT22;7388;51.078;13.740;2022-12-18T00:53:48;-4.20;36.60
14604;DHT22;7388;51.078;13.740;2022-12-18T00:56:14;-4.20;36.50
14604;DHT22;7388;51.078;13.740;2022-12-18T00:58:39;-4.20;36.50
14604;DHT22;7388;51.078;13.740;2022-12-18T01:01:05;-4.20;36.60
14604;DHT22;7388;51.078;13.740;2022-12-18T01:03:31;-4.20;36.60
14604;DHT22;7388;51.078;13.740;2022-12-18T01:05:57;-4.20;36.60
14604;DHT22;7388;51.078;13.740;2022-12-18T01:08:22;-4.20;36.60
14604;DHT22;7388;51.078;13.740;2022-12-18T01:10:48;-4.30;36.50
14604;DHT22;7388;51.078;13.740;2022-12-18T01:13:14;-4.40;36.40
14604;DHT22;7388;51.078;13.740;2022-12-18T01:15:40;-4.40;36.40
14604;DHT22;7388;51.078;13.740;2022-12-18T01:18:06;-4.50;36.50
14604;DHT22;7388;51.078;13.740;2022-12-18T01:20:32;-4.50;36.70
14604;DHT22;7388;51.078;13.740;2022-12-18T01:22:58;-4.50;36.70
14604;DHT22;7388;51.078;13.740;2022-12-18T01:25:24;-4.50;36.70
14604;DHT22;7388;51.078;13.740;2022-12-18T01:27:50;-4.50;36.70
14604;DHT22;7388;51.078;13.740;2022-12-18T01:30:16;-4.40;36.70
14604;DHT22;7388;51.078;13.740;2022-12-18T01:32:42;-4.40;36.70
14604;DHT22;7388;51.078;13.740;2022-12-18T01:35:07;-4.40;37.20
14604;DHT22;7388;51.078;13.740;2022-12-18T01:37:33;-4.40;36.40
14604;DHT22;7388;51.078;13.740;2022-12-18T01:39:59;-4.50;36.40
14604;DHT22;7388;51.078;13.740;2022-12-18T01:42:25;-4.50;36.50
14604;DHT22;7388;51.078;13.740;2022-12-18T01:45:05;-4.50;36.50
14604;DHT22;7388;51.078;13.740;2022-12-18T01:47:47;-4.50;36.50
14604;DHT22;7388;51.078;13.740;2022-12-18T01:50:30;-4.50;36.50
14604;DHT22;7388;51.078;13.740;2022-12-18T01:53:17;-4.50;36.50
14604;DHT22;7388;51.078;13.740;2022-12-18T01:55:47;-4.60;36.20
14604;DHT22;7388;51.078;13.740;2022-12-18T01:58:13;-4.60;36.30
14604;DHT22;7388;51.078;13.740;2022-12-18T02:00:39;-4.60;36.30
14604;DHT22;7388;51.078;13.740;2022-12-18T02:03:05;-3.80;36.50
14604;DHT22;7388;51.078;13.740;2022-12-18T02:08:31;-4.70;36.40
14604;DHT22;7388;51.078;13.740;2022-12-18T02:11:07;-4.80;36.50
14604;DHT22;7388;51.078;13.740;2022-12-18T02:22:11;-4.70;36.50
14604;DHT22;7388;51.078;13.740;2022-12-18T02:27:16;-4.70;36.40
14604;DHT22;7388;51.078;13.740;2022-12-18T02:29:48;-4.70;36.40
14604;DHT22;7388;51.078;13.740;2022-12-18T02:32:18;-4.70;36.40
14604;DHT22;7388;51.078;13.740;2022-12-18T02:34:46;-4.70;36.30
14604;DHT22;7388;51.078;13.740;2022-12-18T02:37:14;-4.80;36.10
14604;DHT22;7388;51.078;13.740;2022-12-18T02:39:43;-4.90;36.10
14604;DHT22;7388;51.078;13.740;2022-12-18T02:42:10;-4.90;36.10
14604;DHT22;7388;51.078;13.740;2022-12-18T02:44:48;-4.50;36.60
14604;DHT22;7388;51.078;13.740;2022-12-18T02:47:16;-4.80;36.60
14604;DHT22;7388;51.078;13.740;2022-12-18T03:00:37;-4.50;37.20
14604;DHT22;7388;51.078;13.740;2022-12-18T03:03:16;-4.40;37.20
14604;DHT22;7388;51.078;13.740;2022-12-18T03:05:51;-4.40;37.20
14604;DHT22;7388;51.078;13.740;2022-12-18T03:08:27;-4.30;37.20
14604;DHT22;7388;51.078;13.740;2022-12-18T03:11:09;-4.30;37.30
14604;DHT22;7388;51.078;13.740;2022-12-18T03:16:09;-4.20;37.20
14604;DHT22;7388;51.078;13.740;2022-12-18T03:18:39;-4.10;37.30
14604;DHT22;7388;51.078;13.740;2022-12-18T03:21:09;-4.10;37.40
14604;DHT22;7388;51.078;13.740;2022-12-18T03:23:40;-4.00;37.50
14604;DHT22;7388;51.078;13.740;2022-12-18T03:26:10;-3.90;37.50
14604;DHT22;7388;51.078;13.740;2022-12-18T03:28:44;-3.90;38.30
14604;DHT22;7388;51.078;13.740;2022-12-18T03:31:12;-3.80;37.60
14604;DHT22;7388;51.078;13.740;2022-12-18T03:34:00;-3.80;37.70
14604;DHT22;7388;51.078;13.740;2022-12-18T03:36:30;-3.70;37.90
14604;DHT22;7388;51.078;13.740;2022-12-18T03:38:59;-3.70;37.90
14604;DHT22;7388;51.078;13.740;2022-12-18T03:41:31;-3.60;37.90
14604;DHT22;7388;51.078;13.740;2022-12-18T03:44:24;-3.60;37.90
14604;DHT22;7388;51.078;13.740;2022-12-18T03:47:15;-3.50;37.90
14604;DHT22;7388;51.078;13.740;2022-12-18T03:50:03;-3.40;37.90
14604;DHT22;7388;51.078;13.740;2022-12-18T03:52:37;-3.40;38.00
14604;DHT22;7388;51.078;13.740;2022-12-18T03:55:05;-3.30;38.10
14604;DHT22;7388;51.078;13.740;2022-12-18T03:57:33;-3.30;38.10
14604;DHT22;7388;51.078;13.740;2022-12-18T04:00:06;-3.30;38.00
14604;DHT22;7388;51.078;13.740;2022-12-18T04:02:33;-3.30;37.90
14604;DHT22;7388;51.078;13.740;2022-12-18T04:05:03;-3.30;37.80
14604;DHT22;7388;51.078;13.740;2022-12-18T04:07:30;-3.30;37.70
14604;DHT22;7388;51.078;13.740;2022-12-18T04:09:58;-3.40;37.60
14604;DHT22;7388;51.078;13.740;2022-12-18T04:12:25;-3.40;37.60
14604;DHT22;7388;51.078;13.740;2022-12-18T04:14:54;-3.50;37.50
14604;DHT22;7388;51.078;13.740;2022-12-18T04:17:20;-3.50;37.40
14604;DHT22;7388;51.078;13.740;2022-12-18T04:19:46;-3.60;37.30
14604;DHT22;7388;51.078;13.740;2022-12-18T04:22:12;-3.60;37.20
14604;DHT22;7388;51.078;13.740;2022-12-18T04:24:37;-3.70;37.20
14604;DHT22;7388;51.078;13.740;2022-12-18T04:27:04;-3.80;37.00
14604;DHT22;7388;51.078;13.740;2022-12-18T04:29:30;-3.80;37.10
14604;DHT22;7388;51.078;13.740;2022-12-18T04:31:56;-3.90;37.00
14604;DHT22;7388;51.078;13.740;2022-12-18T04:34:22;-3.90;37.10
14604;DHT22;7388;51.078;13.740;2022-12-18T04:36:47;-4.00;37.00
14604;DHT22;7388;51.078;13.740;2022-12-18T04:39:14;-4.10;37.00
14604;DHT22;7388;51.078;13.740;2022-12-18T04:41:39;-4.10;36.90
14604;DHT22;7388;51.078;13.740;2022-12-18T04:44:06;-4.10;36.80
14604;DHT22;7388;51.078;13.740;2022-12-18T04:46:32;-4.20;36.60
14604;DHT22;7388;51.078;13.740;2022-12-18T04:48:58;-4.30;36.70
14604;DHT22;7388;51.078;13.740;2022-12-18T04:51:24;-4.30;36.70
14604;DHT22;7388;51.078;13.740;2022-12-18T04:53:49;-4.30;36.80
14604;DHT22;7388;51.078;13.740;2022-12-18T04:56:16;-4.40;36.70
14604;DHT22;7388;51.078;13.740;2022-12-18T04:58:43;-4.40;36.70
14604;DHT22;7388;51.078;13.740;2022-12-18T05:01:10;-4.40;36.70
14604;DHT22;7388;51.078;13.740;2022-12-18T05:03:36;-4.50;36.30
14604;DHT22;7388;51.078;13.740;2022-12-18T05:06:03;-4.60;36.40
14604;DHT22;7388;51.078;13.740;2022-12-18T05:08:29;-4.60;36.50
14604;DHT22;7388;51.078;13.740;2022-12-18T05:11:09;-4.60;36.50
14604;DHT22;7388;51.078;13.740;2022-12-18T05:13:41;-4.60;36.50
14604;DHT22;7388;51.078;13.740;2022-12-18T05:16:08;-4.60;36.50
14604;DHT22;7388;51.078;13.740;2022-12-18T05:18:34;-4.70;36.60
14604;DHT22;7388;51.078;13.740;2022-12-18T05:21:00;-4.70;36.50
14604;DHT22;7388;51.078;13.740;2022-12-18T05:23:26;-4.70;36.50
14604;DHT22;7388;51.078;13.740;2022-12-18T05:25:55;-4.80;36.40
14604;DHT22;7388;51.078;13.740;2022-12-18T05:28:21;-4.80;36.40
14604;DHT22;7388;51.078;13.740;2022-12-18T05:30:52;-4.80;36.50
14604;DHT22;7388;51.078;13.740;2022-12-18T05:33:20;-4.80;36.40
14604;DHT22;7388;51.078;13.740;2022-12-18T05:35:57;-4.80;36.50
14604;DHT22;7388;51.078;13.740;2022-12-18T05:38:24;-4.80;36.40
14604;DHT22;7388;51.078;13.740;2022-12-18T05:40:51;-4.90;36.40
14604;DHT22;7388;51.078;13.740;2022-12-18T05:43:18;-4.90;36.40
14604;DHT22;7388;51.078;13.740;2022-12-18T05:45:44;-4.90;36.40
14604;DHT22;7388;51.078;13.740;2022-12-18T05:48:13;-4.90;36.20
14604;DHT22;7388;51.078;13.740;2022-12-18T05:50:41;-5.00;36.10
14604;DHT22;7388;51.078;13.740;2022-12-18T05:53:08;-5.00;36.10
14604;DHT22;7388;51.078;13.740;2022-12-18T05:55:38;-5.10;36.20
14604;DHT22;7388;51.078;13.740;2022-12-18T05:58:05;-5.10;36.30
14604;DHT22;7388;51.078;13.740;2022-12-18T06:00:34;-5.10;36.20
14604;DHT22;7388;51.078;13.740;2022-12-18T06:03:01;-5.20;36.00
14604;DHT22;7388;51.078;13.740;2022-12-18T06:05:27;-5.20;36.20
14604;DHT22;7388;51.078;13.740;2022-12-18T06:07:53;-5.20;36.20
14604;DHT22;7388;51.078;13.740;2022-12-18T06:10:19;-5.20;36.20
14604;DHT22;7388;51.078;13.740;2022-12-18T06:12:45;-5.20;36.20
14604;DHT22;7388;51.078;13.740;2022-12-18T06:15:10;-5.20;36.30
14604;DHT22;7388;51.078;13.740;2022-12-18T06:17:37;-5.20;36.30
14604;DHT22;7388;51.078;13.740;2022-12-18T06:20:04;-5.20;36.20
14604;DHT22;7388;51.078;13.740;2022-12-18T06:22:31;-5.20;36.20
14604;DHT22;7388;51.078;13.740;2022-12-18T06:24:57;-5.20;36.30
14604;DHT22;7388;51.078;13.740;2022-12-18T06:27:23;-5.30;36.20
14604;DHT22;7388;51.078;13.740;2022-12-18T06:29:49;-5.30;36.00
14604;DHT22;7388;51.078;13.740;2022-12-18T06:32:14;-5.30;36.00
14604;DHT22;7388;51.078;13.740;2022-12-18T06:34:40;-5.30;36.00
14604;DHT22;7388;51.078;13.740;2022-12-18T06:37:06;-5.40;36.50
14604;DHT22;7388;51.078;13.740;2022-12-18T06:39:31;-5.40;35.90
14604;DHT22;7388;51.078;13.740;2022-12-18T06:41:57;-5.40;35.90
14604;DHT22;7388;51.078;13.740;2022-12-18T06:44:23;-5.50;35.80
14604;DHT22;7388;51.078;13.740;2022-12-18T06:46:49;-5.50;35.80
14604;DHT22;7388;51.078;13.740;2022-12-18T06:49:14;-5.60;35.70
14604;DHT22;7388;51.078;13.740;2022-12-18T06:51:41;-5.60;35.80
14604;DHT22;7388;51.078;13.740;2022-12-18T06:54:08;-5.60;35.80
14604;DHT22;7388;51.078;13.740;2022-12-18T06:56:33;-5.60;35.80
14604;DHT22;7388;51.078;13.740;2022-12-18T06:58:59;-5.60;35.80
14604;DHT22;7388;51.078;13.740;2022-12-18T07:01:25;-5.60;35.90
14604;DHT22;7388;51.078;13.740;2022-12-18T07:03:55;-5.60;35.70
14604;DHT22;7388;51.078;13.740;2022-12-18T07:06:23;-5.70;35.70
14604;DHT22;7388;51.078;13.740;2022-12-18T07:08:49;-5.70;35.50
14604;DHT22;7388;51.078;13.740;2022-12-18T07:11:16;-5.80;36.20
14604;DHT22;7388;51.078;13.740;2022-12-18T07:13:43;-5.80;35.70
14604;DHT22;7388;51.078;13.740;2022-12-18T07:16:17;-5.80;35.80
14604;DHT22;7388;51.078;13.740;2022-12-18T07:18:44;-5.70;35.80
14604;DHT22;7388;51.078;13.740;2022-12-18T07:21:12;-5.70;35.90
14604;DHT22;7388;51.078;13.740;2022-12-18T07:23:38;-5.70;35.70
14604;DHT22;7388;51.078;13.740;2022-12-18T07:26:08;-5.80;35.60
14604;DHT22;7388;51.078;13.740;2022-12-18T07:28:36;-5.70;35.50
14604;DHT22;7388;51.078;13.740;2022-12-18T07:31:21;-5.70;35.60
14604;DHT22;7388;51.078;13.740;2022-12-18T07:33:48;-5.80;35.60
14604;DHT22;7388;51.078;13.740;2022-12-18T07:36:14;-5.70;35.90
14604;DHT22;7388;51.078;13.740;2022-12-18T07:38:40;-5.60;35.90
14604;DHT22;7388;51.078;13.740;2022-12-18T07:41:08;-5.60;36.00
14604;DHT22;7388;51.078;13.740;2022-12-18T07:43:35;-5.50;36.10
14604;DHT22;7388;51.078;13.740;2022-12-18T07:46:01;-5.40;36.00
14604;DHT22;7388;51.078;13.740;2022-12-18T07:48:30;-5.30;35.90
14604;DHT22;7388;51.078;13.740;2022-12-18T07:51:00;-5.30;35.80
14604;DHT22;7388;51.078;13.740;2022-12-18T07:53:26;-5.20;35.60
14604;DHT22;7388;51.078;13.740;2022-12-18T07:56:00;-5.20;35.70
14604;DHT22;7388;51.078;13.740;2022-12-18T07:58:26;-5.00;35.70
14604;DHT22;7388;51.078;13.740;2022-12-18T08:00:52;-4.70;35.90
14604;DHT22;7388;51.078;13.740;2022-12-18T08:03:18;-4.30;36.20
14604;DHT22;7388;51.078;13.740;2022-12-18T08:05:44;-4.00;35.40
14604;DHT22;7388;51.078;13.740;2022-12-18T08:08:10;-3.80;35.40
14604;DHT22;7388;51.078;13.740;2022-12-18T08:10:37;-3.70;35.20
14604;DHT22;7388;51.078;13.740;2022-12-18T08:13:03;-3.60;35.10
14604;DHT22;7388;51.078;13.740;2022-12-18T08:15:29;-3.60;35.10
14604;DHT22;7388;51.078;13.740;2022-12-18T08:17:57;-3.50;35.20
14604;DHT22;7388;51.078;13.740;2022-12-18T08:20:23;-3.50;35.30
14604;DHT22;7388;51.078;13.740;2022-12-18T08:22:48;-3.40;35.50
14604;DHT22;7388;51.078;13.740;2022-12-18T08:25:14;-3.20;35.60
14604;DHT22;7388;51.078;13.740;2022-12-18T08:27:40;-3.10;35.80
14604;DHT22;7388;51.078;13.740;2022-12-18T08:30:06;-2.90;35.80
14604;DHT22;7388;51.078;13.740;2022-12-18T08:32:32;-2.90;35.70
14604;DHT22;7388;51.078;13.740;2022-12-18T08:34:58;-2.60;35.70
14604;DHT22;7388;51.078;13.740;2022-12-18T08:37:27;-2.30;35.90
14604;DHT22;7388;51.078;13.740;2022-12-18T08:39:53;-2.10;35.90
14604;DHT22;7388;51.078;13.740;2022-12-18T08:42:18;-2.00;35.60
14604;DHT22;7388;51.078;13.740;2022-12-18T08:45:03;-1.90;35.60
14604;DHT22;7388;51.078;13.740;2022-12-18T08:47:29;-1.80;35.60
14604;DHT22;7388;51.078;13.740;2022-12-18T08:49:55;-1.60;35.60
14604;DHT22;7388;51.078;13.740;2022-12-18T08:52:20;-1.40;35.50
14604;DHT22;7388;51.078;13.740;2022-12-18T08:54:46;-1.20;35.30
14604;DHT22;7388;51.078;13.740;2022-12-18T08:57:12;-0.90;35.20
14604;DHT22;7388;51.078;13.740;2022-12-18T08:59:37;-0.70;35.20
14604;DHT22;7388;51.078;13.740;2022-12-18T09:02:03;-0.40;35.00
14604;DHT22;7388;51.078;13.740;2022-12-18T09:04:29;0.00;35.00
14604;DHT22;7388;51.078;13.740;2022-12-18T09:06:54;0.30;34.80
14604;DHT22;7388;51.078;13.740;2022-12-18T09:09:20;0.80;34.80
14604;DHT22;7388;51.078;13.740;2022-12-18T09:11:46;1.00;34.50
14604;DHT22;7388;51.078;13.740;2022-12-18T09:14:12;1.10;34.10
14604;DHT22;7388;51.078;13.740;2022-12-18T09:16:38;1.20;34.00
14604;DHT22;7388;51.078;13.740;2022-12-18T09:19:04;1.40;34.30
14604;DHT22;7388;51.078;13.740;2022-12-18T09:21:33;1.50;34.10
14604;DHT22;7388;51.078;13.740;2022-12-18T09:23:59;1.60;33.90
14604;DHT22;7388;51.078;13.740;2022-12-18T09:26:26;1.70;33.90
14604;DHT22;7388;51.078;13.740;2022-12-18T09:28:52;1.80;34.00
14604;DHT22;7388;51.078;13.740;2022-12-18T09:31:20;1.80;33.90
14604;DHT22;7388;51.078;13.740;2022-12-18T09:33:47;1.70;34.20
14604;DHT22;7388;51.078;13.740;2022-12-18T09:36:15;1.80;34.40
14604;DHT22;7388;51.078;13.740;2022-12-18T09:38:41;2.10;34.50
14604;DHT22;7388;51.078;13.740;2022-12-18T09:43:58;3.40;33.60
14604;DHT22;7388;51.078;13.740;2022-12-18T09:46:33;4.10;32.70
14604;DHT22;7388;51.078;13.740;2022-12-18T09:49:02;4.80;32.10
14604;DHT22;7388;51.078;13.740;2022-12-18T09:51:39;5.40;31.60
14604;DHT22;7388;51.078;13.740;2022-12-18T09:54:18;5.70;31.30
14604;DHT22;7388;51.078;13.740;2022-12-18T09:56:45;5.70;31.30
14604;DHT22;7388;51.078;13.740;2022-12-18T09:59:26;5.60;30.90
14604;DHT22;7388;51.078;13.740;2022-12-18T10:01:52;5.70;30.10
14604;DHT22;7388;51.078;13.740;2022-12-18T10:04:18;6.10;30.60
14604;DHT22;7388;51.078;13.740;2022-12-18T10:12:07;7.30;29.00
14604;DHT22;7388;51.078;13.740;2022-12-18T10:17:22;8.00;27.50
14604;DHT22;7388;51.078;13.740;2022-12-18T10:27:44;7.00;28.10
14604;DHT22;7388;51.078;13.740;2022-12-18T10:30:18;7.30;27.80
14604;DHT22;7388;51.078;13.740;2022-12-18T10:32:44;8.00;27.50
14604;DHT22;7388;51.078;13.740;2022-12-18T10:35:24;8.60;27.10
14604;DHT22;7388;51.078;13.740;2022-12-18T10:40:31;9.40;24.60
14604;DHT22;7388;51.078;13.740;2022-12-18T10:43:12;9.80;24.90
14604;DHT22;7388;51.078;13.740;2022-12-18T10:45:38;10.10;23.90
14604;DHT22;7388;51.078;13.740;2022-12-18T11:00:42;8.40;24.90
14604;DHT22;7388;51.078;13.740;2022-12-18T11:03:32;8.00;25.20
14604;DHT22;7388;51.078;13.740;2022-12-18T11:06:09;7.90;25.60
14604;DHT22;7388;51.078;13.740;2022-12-18T11:08:36;7.90;25.90
14604;DHT22;7388;51.078;13.740;2022-12-18T11:11:03;7.90;25.40
14604;DHT22;7388;51.078;13.740;2022-12-18T11:13:30;7.40;25.60
14604;DHT22;7388;51.078;13.740;2022-12-18T11:15:57;6.80;26.30
14604;DHT22;7388;51.078;13.740;2022-12-18T11:18:34;6.40;27.60
14604;DHT22;7388;51.078;13.740;2022-12-18T11:23:33;5.50;28.50
14604;DHT22;7388;51.078;13.740;2022-12-18T11:26:02;5.30;29.00
14604;DHT22;7388;51.078;13.740;2022-12-18T11:28:38;5.30;29.40
14604;DHT22;7388;51.078;13.740;2022-12-18T11:33:40;6.60;28.20
14604;DHT22;7388;51.078;13.740;2022-12-18T11:36:08;7.40;27.10
14604;DHT22;7388;51.078;13.740;2022-12-18T11:38:40;7.80;25.90
14604;DHT22;7388;51.078;13.740;2022-12-18T11:41:30;7.50;25.80
14604;DHT22;7388;51.078;13.740;2022-12-18T11:44:27;7.30;26.60
14604;DHT22;7388;51.078;13.740;2022-12-18T11:47:12;7.00;27.00
14604;DHT22;7388;51.078;13.740;2022-12-18T11:49:41;7.50;27.00
14604;DHT22;7388;51.078;13.740;2022-12-18T11:52:22;7.40;26.80
14604;DHT22;7388;51.078;13.740;2022-12-18T11:54:55;7.50;26.40
14604;DHT22;7388;51.078;13.740;2022-12-18T12:00:12;7.20;26.20
14604;DHT22;7388;51.078;13.740;2022-12-18T12:05:31;6.50;27.40
14604;DHT22;7388;51.078;13.740;2022-12-18T12:22:21;5.60;29.20
14604;DHT22;7388;51.078;13.740;2022-12-18T12:30:21;6.90;28.40
14604;DHT22;7388;51.078;13.740;2022-12-18T12:33:08;7.30;27.80
14604;DHT22;7388;51.078;13.740;2022-12-18T12:38:33;7.30;26.40
14604;DHT22;7388;51.078;13.740;2022-12-18T12:41:08;7.60;27.20
14604;DHT22;7388;51.078;13.740;2022-12-18T12:43:58;8.00;26.50
14604;DHT22;7388;51.078;13.740;2022-12-18T12:46:25;8.70;25.40
14604;DHT22;7388;51.078;13.740;2022-12-18T12:48:56;9.50;25.50
14604;DHT22;7388;51.078;13.740;2022-12-18T12:51:30;9.80;23.10
14604;DHT22;7388;51.078;13.740;2022-12-18T12:53:58;9.90;22.20
14604;DHT22;7388;51.078;13.740;2022-12-18T12:56:30;9.60;21.80
14604;DHT22;7388;51.078;13.740;2022-12-18T12:59:59;9.20;22.50
14604;DHT22;7388;51.078;13.740;2022-12-18T13:02:22;8.70;22.70
14604;DHT22;7388;51.078;13.740;2022-12-18T13:04:58;7.80;24.00
14604;DHT22;7388;51.078;13.740;2022-12-18T13:07:32;7.10;25.00
14604;DHT22;7388;51.078;13.740;2022-12-18T13:10:23;6.50;25.90
14604;DHT22;7388;51.078;13.740;2022-12-18T13:12:58;5.90;26.80
14604;DHT22;7388;51.078;13.740;2022-12-18T13:18:19;5.10;28.20
14604;DHT22;7388;51.078;13.740;2022-12-18T13:20:50;4.70;28.50
14604;DHT22;7388;51.078;13.740;2022-12-18T13:31:14;3.70;30.70
14604;DHT22;7388;51.078;13.740;2022-12-18T13:33:42;3.50;31.00
14604;DHT22;7388;51.078;13.740;2022-12-18T13:36:29;3.30;31.40
14604;DHT22;7388;51.078;13.740;2022-12-18T13:41:43;3.00;31.80
14604;DHT22;7388;51.078;13.740;2022-12-18T13:44:20;2.90;32.10
14604;DHT22;7388;51.078;13.740;2022-12-18T13:46:50;2.80;32.30
14604;DHT22;7388;51.078;13.740;2022-12-18T13:49:36;2.80;32.50
14604;DHT22;7388;51.078;13.740;2022-12-18T13:52:03;2.80;32.70
14604;DHT22;7388;51.078;13.740;2022-12-18T13:54:40;2.70;32.90
14604;DHT22;7388;51.078;13.740;2022-12-18T13:59:58;2.60;33.20
14604;DHT22;7388;51.078;13.740;2022-12-18T14:02:26;2.50;33.60
14604;DHT22;7388;51.078;13.740;2022-12-18T14:04:53;2.40;33.70
14604;DHT22;7388;51.078;13.740;2022-12-18T14:07:24;2.40;33.70
14604;DHT22;7388;51.078;13.740;2022-12-18T14:09:55;2.30;34.00
14604;DHT22;7388;51.078;13.740;2022-12-18T14:12:27;2.20;34.20
14604;DHT22;7388;51.078;13.740;2022-12-18T14:15:32;2.10;34.50
14604;DHT22;7388;51.078;13.740;2022-12-18T14:18:02;2.00;34.80
14604;DHT22;7388;51.078;13.740;2022-12-18T14:20:31;1.90;35.00
14604;DHT22;7388;51.078;13.740;2022-12-18T14:22:58;1.70;35.50
14604;DHT22;7388;51.078;13.740;2022-12-18T14:25:29;1.60;35.70
14604;DHT22;7388;51.078;13.740;2022-12-18T14:30:30;1.50;36.20
14604;DHT22;7388;51.078;13.740;2022-12-18T14:33:20;1.40;36.30
14604;DHT22;7388;51.078;13.740;2022-12-18T14:36:01;1.30;36.50
14604;DHT22;7388;51.078;13.740;2022-12-18T14:38:32;1.30;36.60
14604;DHT22;7388;51.078;13.740;2022-12-18T14:41:06;1.20;36.90
14604;DHT22;7388;51.078;13.740;2022-12-18T14:43:34;1.10;37.20
14604;DHT22;7388;51.078;13.740;2022-12-18T14:46:01;1.00;37.80
14604;DHT22;7388;51.078;13.740;2022-12-18T14:48:39;1.10;37.20
14604;DHT22;7388;51.078;13.740;2022-12-18T14:51:20;1.10;37.20
14604;DHT22;7388;51.078;13.740;2022-12-18T14:53:52;1.00;37.20
14604;DHT22;7388;51.078;13.740;2022-12-18T14:56:21;1.10;37.10
14604;DHT22;7388;51.078;13.740;2022-12-18T14:58:50;1.20;36.90
14604;DHT22;7388;51.078;13.740;2022-12-18T15:01:22;1.10;37.10
14604;DHT22;7388;51.078;13.740;2022-12-18T15:03:50;1.00;37.10
14604;DHT22;7388;51.078;13.740;2022-12-18T15:06:26;1.00;37.10
14604;DHT22;7388;51.078;13.740;2022-12-18T15:08:53;0.90;37.30
14604;DHT22;7388;51.078;13.740;2022-12-18T15:11:43;0.90;37.60
14604;DHT22;7388;51.078;13.740;2022-12-18T15:16:55;0.60;38.30
14604;DHT22;7388;51.078;13.740;2022-12-18T15:19:33;0.40;38.90
14604;DHT22;7388;51.078;13.740;2022-12-18T15:21:59;0.40;39.00
14604;DHT22;7388;51.078;13.740;2022-12-18T15:24:29;0.30;39.00
14604;DHT22;7388;51.078;13.740;2022-12-18T15:26:56;0.30;39.10
14604;DHT22;7388;51.078;13.740;2022-12-18T15:29:22;0.30;39.10
14604;DHT22;7388;51.078;13.740;2022-12-18T15:31:59;0.30;39.00
14604;DHT22;7388;51.078;13.740;2022-12-18T15:34:25;0.40;39.00
14604;DHT22;7388;51.078;13.740;2022-12-18T15:36:51;0.30;39.00
14604;DHT22;7388;51.078;13.740;2022-12-18T15:39:17;0.20;39.40
14604;DHT22;7388;51.078;13.740;2022-12-18T15:41:43;0.00;39.90
14604;DHT22;7388;51.078;13.740;2022-12-18T15:44:29;0.00;40.20
14604;DHT22;7388;51.078;13.740;2022-12-18T15:46:55;0.10;39.90
14604;DHT22;7388;51.078;13.740;2022-12-18T15:49:20;0.00;40.10
14604;DHT22;7388;51.078;13.740;2022-12-18T15:51:52;-0.10;40.20
14604;DHT22;7388;51.078;13.740;2022-12-18T15:54:18;0.10;39.90
14604;DHT22;7388;51.078;13.740;2022-12-18T15:57:03;0.00;40.00
14604;DHT22;7388;51.078;13.740;2022-12-18T15:59:47;0.00;39.90
14604;DHT22;7388;51.078;13.740;2022-12-18T16:02:17;0.00;39.90
14604;DHT22;7388;51.078;13.740;2022-12-18T16:04:43;0.00;39.90
14604;DHT22;7388;51.078;13.740;2022-12-18T16:07:09;0.00;39.90
14604;DHT22;7388;51.078;13.740;2022-12-18T16:09:35;0.00;40.10
14604;DHT22;7388;51.078;13.740;2022-12-18T16:12:01;0.00;40.10
14604;DHT22;7388;51.078;13.740;2022-12-18T16:14:29;-0.10;40.40
14604;DHT22;7388;51.078;13.740;2022-12-18T16:16:58;-0.20;40.60
14604;DHT22;7388;51.078;13.740;2022-12-18T16:19:25;-0.20;40.80
14604;DHT22;7388;51.078;13.740;2022-12-18T16:21:52;-0.30;41.00
14604;DHT22;7388;51.078;13.740;2022-12-18T16:24:22;-0.20;40.90
14604;DHT22;7388;51.078;13.740;2022-12-18T16:26:49;-0.10;40.60
14604;DHT22;7388;51.078;13.740;2022-12-18T16:29:17;0.00;40.20
14604;DHT22;7388;51.078;13.740;2022-12-18T16:31:43;0.00;40.20
14604;DHT22;7388;51.078;13.740;2022-12-18T16:34:23;-0.10;40.30
14604;DHT22;7388;51.078;13.740;2022-12-18T16:36:52;0.00;40.20
14604;DHT22;7388;51.078;13.740;2022-12-18T16:39:19;0.00;40.00
14604;DHT22;7388;51.078;13.740;2022-12-18T16:41:45;0.00;40.10
14604;DHT22;7388;51.078;13.740;2022-12-18T16:44:11;0.10;40.00
14604;DHT22;7388;51.078;13.740;2022-12-18T16:46:37;0.00;40.10
14604;DHT22;7388;51.078;13.740;2022-12-18T16:49:05;0.00;40.10
14604;DHT22;7388;51.078;13.740;2022-12-18T16:51:30;-0.10;40.50
14604;DHT22;7388;51.078;13.740;2022-12-18T16:53:56;-0.10;40.70
14604;DHT22;7388;51.078;13.740;2022-12-18T16:56:22;-0.10;40.60
14604;DHT22;7388;51.078;13.740;2022-12-18T16:58:52;-0.10;40.80
14604;DHT22;7388;51.078;13.740;2022-12-18T17:01:19;0.00;40.50
14604;DHT22;7388;51.078;13.740;2022-12-18T17:03:53;0.00;40.30
14604;DHT22;7388;51.078;13.740;2022-12-18T17:06:23;0.10;40.70
14604;DHT22;7388;51.078;13.740;2022-12-18T17:08:55;-0.10;40.80
14604;DHT22;7388;51.078;13.740;2022-12-18T17:11:23;-0.20;41.00
14604;DHT22;7388;51.078;13.740;2022-12-18T17:13:49;-0.10;40.80
14604;DHT22;7388;51.078;13.740;2022-12-18T17:16:15;0.00;40.70
14604;DHT22;7388;51.078;13.740;2022-12-18T17:18:42;-0.10;40.80
14604;DHT22;7388;51.078;13.740;2022-12-18T17:21:09;-0.10;40.90
14604;DHT22;7388;51.078;13.740;2022-12-18T17:23:36;-0.10;41.20
14604;DHT22;7388;51.078;13.740;2022-12-18T17:26:02;-0.20;41.10
14604;DHT22;7388;51.078;13.740;2022-12-18T17:28:29;-0.10;41.00
14604;DHT22;7388;51.078;13.740;2022-12-18T17:30:55;-0.10;41.20
14604;DHT22;7388;51.078;13.740;2022-12-18T17:33:22;-0.10;41.10
14604;DHT22;7388;51.078;13.740;2022-12-18T17:35:48;0.00;40.80
14604;DHT22;7388;51.078;13.740;2022-12-18T17:38:14;0.10;40.70
14604;DHT22;7388;51.078;13.740;2022-12-18T17:40:40;0.10;40.60
14604;DHT22;7388;51.078;13.740;2022-12-18T17:43:07;0.20;40.30
14604;DHT22;7388;51.078;13.740;2022-12-18T17:45:37;0.20;40.20
14604;DHT22;7388;51.078;13.740;2022-12-18T17:48:05;0.20;40.30
14604;DHT22;7388;51.078;13.740;2022-12-18T17:50:32;0.10;40.60